sensor_id;sensor_type;location;lat;lon;timestamp;P1;durP1;ratioP1;P2;durP2;ratioP2
36799;SDS011;22752;51.960;5.886;2022-07-24T00:00:41;6.65;;;4.80;;
36799;SDS011;22752;51.960;5.886;2022-07-24T00:03:07;6.28;;;4.85;;
36799;SDS011;22752;51.960;5.886;2022-07-24T00:05:33;7.30;;;4.88;;
36799;SDS011;22752;51.960;5.886;2022-07-24T00:07:59;6.03;;;5.43;;
36799;SDS011;22752;51.960;5.886;2022-07-24T00:10:25;7.32;;;5.82;;
36799;SDS011;22752;51.960;5.886;2022-07-24T00:12:51;5.80;;;5.20;;
36799;SDS011;22752;51.960;5.886;2022-07-24T00:15:16;5.70;;;5.20;;
36799;SDS011;22752;51.960;5.886;2022-07-24T00:17:42;5.68;;;5.18;;
36799;SDS011;22752;51.960;5.886;2022-07-24T00:20:08;6.50;;;5.90;;
36799;SDS011;22752;51.960;5.886;2022-07-24T00:22:34;6.68;;;5.40;;
36799;SDS011;22752;51.960;5.886;2022-07-24T00:25:00;6.60;;;5.60;;
36799;SDS011;22752;51.960;5.886;2022-07-24T00:27:26;7.35;;;5.53;;
36799;SDS011;22752;51.960;5.886;2022-07-24T00:29:51;6.22;;;5.63;;
36799;SDS011;22752;51.960;5.886;2022-07-24T00:32:17;7.20;;;6.15;;
36799;SDS011;22752;51.960;5.886;2022-07-24T00:34:43;8.02;;;6.35;;
36799;SDS011;22752;51.960;5.886;2022-07-24T00:37:08;6.72;;;6.03;;
36799;SDS011;22752;51.960;5.886;2022-07-24T00:39:34;6.40;;;5.47;;
36799;SDS011;22752;51.960;5.886;2022-07-24T00:41:59;6.25;;;5.65;;
36799;SDS011;22752;51.960;5.886;2022-07-24T00:44:25;8.88;;;6.38;;
36799;SDS011;22752;51.960;5.886;2022-07-24T00:46:51;9.23;;;6.70;;
36799;SDS011;22752;51.960;5.886;2022-07-24T00:49:17;6.97;;;6.28;;
36799;SDS011;22752;51.960;5.886;2022-07-24T00:51:45;8.15;;;6.00;;
36799;SDS011;22752;51.960;5.886;2022-07-24T00:54:13;8.88;;;7.03;;
36799;SDS011;22752;51.960;5.886;2022-07-24T00:56:43;10.68;;;7.20;;
36799;SDS011;22752;51.960;5.886;2022-07-24T00:59:09;9.63;;;7.22;;
36799;SDS011;22752;51.960;5.886;2022-07-24T01:01:35;8.80;;;6.60;;
36799;SDS011;22752;51.960;5.886;2022-07-24T01:04:01;7.95;;;7.25;;
36799;SDS011;22752;51.960;5.886;2022-07-24T01:06:28;7.28;;;6.47;;
36799;SDS011;22752;51.960;5.886;2022-07-24T01:08:54;9.00;;;6.63;;
36799;SDS011;22752;51.960;5.886;2022-07-24T01:11:20;8.43;;;6.10;;
36799;SDS011;22752;51.960;5.886;2022-07-24T01:13:49;7.38;;;6.50;;
36799;SDS011;22752;51.960;5.886;2022-07-24T01:16:15;9.32;;;7.72;;
36799;SDS011;22752;51.960;5.886;2022-07-24T01:18:42;8.43;;;6.82;;
36799;SDS011;22752;51.960;5.886;2022-07-24T01:21:07;8.65;;;7.70;;
36799;SDS011;22752;51.960;5.886;2022-07-24T01:23:34;8.25;;;7.45;;
36799;SDS011;22752;51.960;5.886;2022-07-24T01:26:00;7.85;;;6.53;;
36799;SDS011;22752;51.960;5.886;2022-07-24T01:28:27;8.80;;;6.75;;
36799;SDS011;22752;51.960;5.886;2022-07-24T01:30:53;9.88;;;7.63;;
36799;SDS011;22752;51.960;5.886;2022-07-24T01:33:19;7.05;;;6.32;;
36799;SDS011;22752;51.960;5.886;2022-07-24T01:35:45;8.50;;;7.53;;
36799;SDS011;22752;51.960;5.886;2022-07-24T01:38:11;9.85;;;6.60;;
36799;SDS011;22752;51.960;5.886;2022-07-24T01:40:40;7.03;;;6.32;;
36799;SDS011;22752;51.960;5.886;2022-07-24T01:43:06;6.85;;;6.15;;
36799;SDS011;22752;51.960;5.886;2022-07-24T01:45:32;7.95;;;7.15;;
36799;SDS011;22752;51.960;5.886;2022-07-24T01:47:57;8.57;;;7.03;;
36799;SDS011;22752;51.960;5.886;2022-07-24T01:50:23;8.93;;;6.78;;
36799;SDS011;22752;51.960;5.886;2022-07-24T01:52:49;7.88;;;7.18;;
36799;SDS011;22752;51.960;5.886;2022-07-24T01:55:15;9.63;;;6.85;;
36799;SDS011;22752;51.960;5.886;2022-07-24T01:57:40;8.38;;;6.70;;
36799;SDS011;22752;51.960;5.886;2022-07-24T02:00:07;7.65;;;6.55;;
36799;SDS011;22752;51.960;5.886;2022-07-24T02:02:38;7.82;;;7.03;;
36799;SDS011;22752;51.960;5.886;2022-07-24T02:05:05;10.73;;;8.35;;
36799;SDS011;22752;51.960;5.886;2022-07-24T02:07:31;8.60;;;7.45;;
36799;SDS011;22752;51.960;5.886;2022-07-24T02:09:56;9.15;;;7.22;;
36799;SDS011;22752;51.960;5.886;2022-07-24T02:12:22;9.32;;;7.00;;
36799;SDS011;22752;51.960;5.886;2022-07-24T02:14:47;8.50;;;7.50;;
36799;SDS011;22752;51.960;5.886;2022-07-24T02:17:13;7.70;;;6.75;;
36799;SDS011;22752;51.960;5.886;2022-07-24T02:19:39;7.30;;;6.57;;
36799;SDS011;22752;51.960;5.886;2022-07-24T02:22:04;7.53;;;6.28;;
36799;SDS011;22752;51.960;5.886;2022-07-24T02:24:30;7.53;;;6.30;;
36799;SDS011;22752;51.960;5.886;2022-07-24T02:26:55;7.25;;;6.55;;
36799;SDS011;22752;51.960;5.886;2022-07-24T02:29:21;8.10;;;6.97;;
36799;SDS011;22752;51.960;5.886;2022-07-24T02:31:47;8.05;;;6.45;;
36799;SDS011;22752;51.960;5.886;2022-07-24T02:34:12;8.82;;;6.45;;
36799;SDS011;22752;51.960;5.886;2022-07-24T02:36:38;7.63;;;6.30;;
36799;SDS011;22752;51.960;5.886;2022-07-24T02:39:03;7.65;;;6.88;;
36799;SDS011;22752;51.960;5.886;2022-07-24T02:41:29;6.63;;;5.95;;
36799;SDS011;22752;51.960;5.886;2022-07-24T02:43:55;8.57;;;6.60;;
36799;SDS011;22752;51.960;5.886;2022-07-24T02:46:21;7.10;;;6.28;;
36799;SDS011;22752;51.960;5.886;2022-07-24T02:48:46;6.82;;;6.15;;
36799;SDS011;22752;51.960;5.886;2022-07-24T02:51:12;9.82;;;7.15;;
36799;SDS011;22752;51.960;5.886;2022-07-24T02:53:38;8.13;;;6.72;;
36799;SDS011;22752;51.960;5.886;2022-07-24T02:56:04;9.45;;;6.85;;
36799;SDS011;22752;51.960;5.886;2022-07-24T02:58:29;9.10;;;7.25;;
36799;SDS011;22752;51.960;5.886;2022-07-24T03:00:55;10.30;;;7.30;;
36799;SDS011;22752;51.960;5.886;2022-07-24T03:03:21;7.60;;;6.75;;
36799;SDS011;22752;51.960;5.886;2022-07-24T03:05:47;12.38;;;8.50;;
36799;SDS011;22752;51.960;5.886;2022-07-24T03:08:12;9.10;;;6.93;;
36799;SDS011;22752;51.960;5.886;2022-07-24T03:10:38;8.48;;;7.28;;
36799;SDS011;22752;51.960;5.886;2022-07-24T03:13:04;8.10;;;7.13;;
36799;SDS011;22752;51.960;5.886;2022-07-24T03:15:30;7.80;;;6.45;;
36799;SDS011;22752;51.960;5.886;2022-07-24T03:17:57;6.07;;;5.45;;
36799;SDS011;22752;51.960;5.886;2022-07-24T03:20:23;6.97;;;6.28;;
36799;SDS011;22752;51.960;5.886;2022-07-24T03:22:52;8.25;;;6.90;;
36799;SDS011;22752;51.960;5.886;2022-07-24T03:25:18;8.70;;;6.30;;
36799;SDS011;22752;51.960;5.886;2022-07-24T03:27:44;7.88;;;6.40;;
36799;SDS011;22752;51.960;5.886;2022-07-24T03:30:11;9.90;;;7.80;;
36799;SDS011;22752;51.960;5.886;2022-07-24T03:32:37;6.82;;;6.13;;
36799;SDS011;22752;51.960;5.886;2022-07-24T03:35:04;9.23;;;7.38;;
36799;SDS011;22752;51.960;5.886;2022-07-24T03:37:30;7.93;;;6.45;;
36799;SDS011;22752;51.960;5.886;2022-07-24T03:39:56;9.07;;;7.20;;
36799;SDS011;22752;51.960;5.886;2022-07-24T03:42:21;10.63;;;7.20;;
36799;SDS011;22752;51.960;5.886;2022-07-24T03:44:47;9.60;;;6.85;;
36799;SDS011;22752;51.960;5.886;2022-07-24T03:47:13;6.60;;;5.90;;
36799;SDS011;22752;51.960;5.886;2022-07-24T03:49:38;8.10;;;6.88;;
36799;SDS011;22752;51.960;5.886;2022-07-24T03:52:04;9.80;;;7.53;;
36799;SDS011;22752;51.960;5.886;2022-07-24T03:54:30;7.72;;;6.18;;
36799;SDS011;22752;51.960;5.886;2022-07-24T03:56:57;9.90;;;7.53;;
36799;SDS011;22752;51.960;5.886;2022-07-24T03:59:23;9.20;;;7.63;;
36799;SDS011;22752;51.960;5.886;2022-07-24T04:01:48;8.88;;;7.75;;
36799;SDS011;22752;51.960;5.886;2022-07-24T04:04:14;9.70;;;7.95;;
36799;SDS011;22752;51.960;5.886;2022-07-24T04:06:39;11.68;;;7.68;;
36799;SDS011;22752;51.960;5.886;2022-07-24T04:09:08;8.25;;;7.25;;
36799;SDS011;22752;51.960;5.886;2022-07-24T04:11:33;8.57;;;6.70;;
36799;SDS011;22752;51.960;5.886;2022-07-24T04:13:59;7.72;;;6.90;;
36799;SDS011;22752;51.960;5.886;2022-07-24T04:16:25;7.25;;;6.55;;
36799;SDS011;22752;51.960;5.886;2022-07-24T04:18:51;7.55;;;6.75;;
36799;SDS011;22752;51.960;5.886;2022-07-24T04:21:17;7.97;;;6.68;;
36799;SDS011;22752;51.960;5.886;2022-07-24T04:23:42;6.88;;;6.18;;
36799;SDS011;22752;51.960;5.886;2022-07-24T04:26:08;8.15;;;6.50;;
36799;SDS011;22752;51.960;5.886;2022-07-24T04:28:34;7.40;;;6.43;;
36799;SDS011;22752;51.960;5.886;2022-07-24T04:31:00;7.72;;;6.60;;
36799;SDS011;22752;51.960;5.886;2022-07-24T04:33:26;8.48;;;7.43;;
36799;SDS011;22752;51.960;5.886;2022-07-24T04:35:52;8.68;;;7.88;;
36799;SDS011;22752;51.960;5.886;2022-07-24T04:38:18;9.23;;;8.25;;
36799;SDS011;22752;51.960;5.886;2022-07-24T04:40:43;7.80;;;6.47;;
36799;SDS011;22752;51.960;5.886;2022-07-24T04:43:09;13.77;;;8.50;;
36799;SDS011;22752;51.960;5.886;2022-07-24T04:45:35;9.68;;;7.68;;
36799;SDS011;22752;51.960;5.886;2022-07-24T04:48:01;9.65;;;8.10;;
36799;SDS011;22752;51.960;5.886;2022-07-24T04:50:26;9.05;;;7.68;;
36799;SDS011;22752;51.960;5.886;2022-07-24T04:52:52;10.60;;;7.50;;
36799;SDS011;22752;51.960;5.886;2022-07-24T04:55:18;7.75;;;6.43;;
36799;SDS011;22752;51.960;5.886;2022-07-24T04:57:43;8.38;;;7.47;;
36799;SDS011;22752;51.960;5.886;2022-07-24T05:00:10;8.32;;;6.90;;
36799;SDS011;22752;51.960;5.886;2022-07-24T05:02:38;10.18;;;7.32;;
36799;SDS011;22752;51.960;5.886;2022-07-24T05:05:04;7.05;;;6.32;;
36799;SDS011;22752;51.960;5.886;2022-07-24T05:07:30;8.98;;;7.10;;
36799;SDS011;22752;51.960;5.886;2022-07-24T05:09:56;9.07;;;7.35;;
36799;SDS011;22752;51.960;5.886;2022-07-24T05:12:22;9.60;;;7.93;;
36799;SDS011;22752;51.960;5.886;2022-07-24T05:14:48;8.48;;;7.63;;
36799;SDS011;22752;51.960;5.886;2022-07-24T05:17:14;12.07;;;8.20;;
36799;SDS011;22752;51.960;5.886;2022-07-24T05:19:39;10.70;;;8.18;;
36799;SDS011;22752;51.960;5.886;2022-07-24T05:22:05;9.85;;;8.43;;
36799;SDS011;22752;51.960;5.886;2022-07-24T05:24:31;16.67;;;11.15;;
36799;SDS011;22752;51.960;5.886;2022-07-24T05:26:57;14.18;;;12.10;;
36799;SDS011;22752;51.960;5.886;2022-07-24T05:29:22;12.15;;;10.38;;
36799;SDS011;22752;51.960;5.886;2022-07-24T05:31:48;12.15;;;10.55;;
36799;SDS011;22752;51.960;5.886;2022-07-24T05:34:14;16.25;;;11.38;;
36799;SDS011;22752;51.960;5.886;2022-07-24T05:36:39;13.13;;;10.80;;
36799;SDS011;22752;51.960;5.886;2022-07-24T05:39:05;15.88;;;12.70;;
36799;SDS011;22752;51.960;5.886;2022-07-24T05:41:31;14.35;;;12.20;;
36799;SDS011;22752;51.960;5.886;2022-07-24T05:43:56;17.00;;;13.00;;
36799;SDS011;22752;51.960;5.886;2022-07-24T05:46:22;16.17;;;13.00;;
36799;SDS011;22752;51.960;5.886;2022-07-24T05:48:48;14.10;;;12.70;;
36799;SDS011;22752;51.960;5.886;2022-07-24T05:51:14;17.50;;;14.45;;
36799;SDS011;22752;51.960;5.886;2022-07-24T05:53:40;16.88;;;14.05;;
36799;SDS011;22752;51.960;5.886;2022-07-24T05:56:05;16.67;;;14.85;;
36799;SDS011;22752;51.960;5.886;2022-07-24T05:58:31;16.33;;;12.50;;
36799;SDS011;22752;51.960;5.886;2022-07-24T06:00:57;16.02;;;13.50;;
36799;SDS011;22752;51.960;5.886;2022-07-24T06:03:23;18.90;;;14.77;;
36799;SDS011;22752;51.960;5.886;2022-07-24T06:05:48;17.55;;;12.75;;
36799;SDS011;22752;51.960;5.886;2022-07-24T06:08:14;12.98;;;10.93;;
36799;SDS011;22752;51.960;5.886;2022-07-24T06:10:40;19.23;;;13.45;;
36799;SDS011;22752;51.960;5.886;2022-07-24T06:13:05;13.48;;;11.30;;
36799;SDS011;22752;51.960;5.886;2022-07-24T06:15:31;19.38;;;12.52;;
36799;SDS011;22752;51.960;5.886;2022-07-24T06:17:57;15.70;;;12.05;;
36799;SDS011;22752;51.960;5.886;2022-07-24T06:20:22;15.30;;;10.80;;
36799;SDS011;22752;51.960;5.886;2022-07-24T06:22:48;13.25;;;10.98;;
36799;SDS011;22752;51.960;5.886;2022-07-24T06:25:14;12.77;;;8.70;;
36799;SDS011;22752;51.960;5.886;2022-07-24T06:27:45;13.77;;;9.48;;
36799;SDS011;22752;51.960;5.886;2022-07-24T06:30:13;13.25;;;9.55;;
36799;SDS011;22752;51.960;5.886;2022-07-24T06:32:39;12.95;;;9.45;;
36799;SDS011;22752;51.960;5.886;2022-07-24T06:35:04;12.27;;;8.75;;
36799;SDS011;22752;51.960;5.886;2022-07-24T06:37:31;17.08;;;9.90;;
36799;SDS011;22752;51.960;5.886;2022-07-24T06:39:56;13.02;;;9.30;;
36799;SDS011;22752;51.960;5.886;2022-07-24T06:42:22;11.90;;;8.98;;
36799;SDS011;22752;51.960;5.886;2022-07-24T06:44:47;11.50;;;9.45;;
36799;SDS011;22752;51.960;5.886;2022-07-24T06:47:13;12.00;;;8.95;;
36799;SDS011;22752;51.960;5.886;2022-07-24T06:49:39;11.55;;;9.38;;
36799;SDS011;22752;51.960;5.886;2022-07-24T06:52:04;15.18;;;8.50;;
36799;SDS011;22752;51.960;5.886;2022-07-24T06:54:30;10.45;;;8.02;;
36799;SDS011;22752;51.960;5.886;2022-07-24T06:56:56;8.77;;;6.32;;
36799;SDS011;22752;51.960;5.886;2022-07-24T06:59:21;10.48;;;7.68;;
36799;SDS011;22752;51.960;5.886;2022-07-24T07:01:47;10.57;;;7.10;;
36799;SDS011;22752;51.960;5.886;2022-07-24T07:04:13;9.25;;;6.90;;
36799;SDS011;22752;51.960;5.886;2022-07-24T07:06:38;10.90;;;7.00;;
36799;SDS011;22752;51.960;5.886;2022-07-24T07:09:04;8.68;;;6.82;;
36799;SDS011;22752;51.960;5.886;2022-07-24T07:11:29;9.43;;;6.45;;
36799;SDS011;22752;51.960;5.886;2022-07-24T07:13:55;9.85;;;6.38;;
36799;SDS011;22752;51.960;5.886;2022-07-24T07:16:21;11.30;;;6.78;;
36799;SDS011;22752;51.960;5.886;2022-07-24T07:18:46;5.43;;;4.85;;
36799;SDS011;22752;51.960;5.886;2022-07-24T07:21:13;8.43;;;5.18;;
36799;SDS011;22752;51.960;5.886;2022-07-24T07:23:38;9.00;;;4.97;;
36799;SDS011;22752;51.960;5.886;2022-07-24T07:26:04;7.47;;;5.47;;
36799;SDS011;22752;51.960;5.886;2022-07-24T07:28:30;9.05;;;4.50;;
36799;SDS011;22752;51.960;5.886;2022-07-24T07:30:55;8.52;;;4.50;;
36799;SDS011;22752;51.960;5.886;2022-07-24T07:33:21;5.47;;;4.15;;
36799;SDS011;22752;51.960;5.886;2022-07-24T07:35:46;9.10;;;5.13;;
36799;SDS011;22752;51.960;5.886;2022-07-24T07:38:12;5.50;;;4.20;;
36799;SDS011;22752;51.960;5.886;2022-07-24T07:40:38;4.82;;;4.30;;
36799;SDS011;22752;51.960;5.886;2022-07-24T07:43:04;8.25;;;3.90;;
36799;SDS011;22752;51.960;5.886;2022-07-24T07:45:29;7.57;;;4.05;;
36799;SDS011;22752;51.960;5.886;2022-07-24T07:47:55;7.05;;;4.05;;
36799;SDS011;22752;51.960;5.886;2022-07-24T07:50:20;6.38;;;3.67;;
36799;SDS011;22752;51.960;5.886;2022-07-24T07:52:46;5.45;;;3.90;;
36799;SDS011;22752;51.960;5.886;2022-07-24T07:55:12;5.28;;;3.42;;
36799;SDS011;22752;51.960;5.886;2022-07-24T07:57:37;5.65;;;3.42;;
36799;SDS011;22752;51.960;5.886;2022-07-24T08:00:06;5.65;;;3.30;;
36799;SDS011;22752;51.960;5.886;2022-07-24T08:02:33;7.93;;;3.63;;
36799;SDS011;22752;51.960;5.886;2022-07-24T08:04:58;4.60;;;3.35;;
36799;SDS011;22752;51.960;5.886;2022-07-24T08:07:24;5.10;;;3.05;;
36799;SDS011;22752;51.960;5.886;2022-07-24T08:09:49;5.30;;;3.53;;
36799;SDS011;22752;51.960;5.886;2022-07-24T08:12:15;7.38;;;3.78;;
36799;SDS011;22752;51.960;5.886;2022-07-24T08:14:41;4.65;;;3.30;;
36799;SDS011;22752;51.960;5.886;2022-07-24T08:17:06;7.43;;;3.85;;
36799;SDS011;22752;51.960;5.886;2022-07-24T08:19:32;3.63;;;2.85;;
36799;SDS011;22752;51.960;5.886;2022-07-24T08:21:57;4.80;;;2.92;;
36799;SDS011;22752;51.960;5.886;2022-07-24T08:24:23;4.40;;;2.63;;
36799;SDS011;22752;51.960;5.886;2022-07-24T08:26:49;3.47;;;2.75;;
36799;SDS011;22752;51.960;5.886;2022-07-24T08:29:15;4.57;;;3.17;;
36799;SDS011;22752;51.960;5.886;2022-07-24T08:31:41;3.83;;;3.03;;
36799;SDS011;22752;51.960;5.886;2022-07-24T08:34:07;5.43;;;2.83;;
36799;SDS011;22752;51.960;5.886;2022-07-24T08:36:33;4.40;;;3.28;;
36799;SDS011;22752;51.960;5.886;2022-07-24T08:38:58;4.28;;;2.60;;
36799;SDS011;22752;51.960;5.886;2022-07-24T08:41:24;13.30;;;3.03;;
36799;SDS011;22752;51.960;5.886;2022-07-24T08:43:50;5.13;;;3.30;;
36799;SDS011;22752;51.960;5.886;2022-07-24T08:46:16;2.67;;;2.20;;
36799;SDS011;22752;51.960;5.886;2022-07-24T08:48:42;3.25;;;2.47;;
36799;SDS011;22752;51.960;5.886;2022-07-24T08:51:10;3.88;;;2.80;;
36799;SDS011;22752;51.960;5.886;2022-07-24T08:53:38;2.60;;;2.35;;
36799;SDS011;22752;51.960;5.886;2022-07-24T08:56:04;4.20;;;2.58;;
36799;SDS011;22752;51.960;5.886;2022-07-24T08:58:30;3.85;;;2.70;;
36799;SDS011;22752;51.960;5.886;2022-07-24T09:01:00;5.10;;;3.03;;
36799;SDS011;22752;51.960;5.886;2022-07-24T09:03:26;2.55;;;2.35;;
36799;SDS011;22752;51.960;5.886;2022-07-24T09:05:52;4.47;;;3.05;;
36799;SDS011;22752;51.960;5.886;2022-07-24T09:08:24;3.08;;;2.70;;
36799;SDS011;22752;51.960;5.886;2022-07-24T09:10:53;2.88;;;2.58;;
36799;SDS011;22752;51.960;5.886;2022-07-24T09:13:28;3.30;;;2.60;;
36799;SDS011;22752;51.960;5.886;2022-07-24T09:15:57;3.65;;;3.10;;
36799;SDS011;22752;51.960;5.886;2022-07-24T09:18:33;3.95;;;2.63;;
36799;SDS011;22752;51.960;5.886;2022-07-24T09:21:10;2.67;;;2.42;;
36799;SDS011;22752;51.960;5.886;2022-07-24T09:23:37;2.80;;;2.60;;
36799;SDS011;22752;51.960;5.886;2022-07-24T09:26:03;2.80;;;2.53;;
36799;SDS011;22752;51.960;5.886;2022-07-24T09:28:29;3.35;;;2.90;;
36799;SDS011;22752;51.960;5.886;2022-07-24T09:31:10;6.22;;;2.55;;
36799;SDS011;22752;51.960;5.886;2022-07-24T09:33:36;3.97;;;2.90;;
36799;SDS011;22752;51.960;5.886;2022-07-24T09:36:02;4.10;;;2.70;;
36799;SDS011;22752;51.960;5.886;2022-07-24T09:38:37;3.65;;;2.30;;
36799;SDS011;22752;51.960;5.886;2022-07-24T09:41:03;3.47;;;2.58;;
36799;SDS011;22752;51.960;5.886;2022-07-24T09:43:30;3.25;;;2.55;;
36799;SDS011;22752;51.960;5.886;2022-07-24T09:51:18;3.03;;;2.50;;
36799;SDS011;22752;51.960;5.886;2022-07-24T09:53:44;4.32;;;2.60;;
36799;SDS011;22752;51.960;5.886;2022-07-24T09:56:12;3.10;;;2.78;;
36799;SDS011;22752;51.960;5.886;2022-07-24T09:58:40;2.30;;;2.10;;
36799;SDS011;22752;51.960;5.886;2022-07-24T10:01:21;3.35;;;2.08;;
36799;SDS011;22752;51.960;5.886;2022-07-24T10:03:48;2.67;;;2.42;;
36799;SDS011;22752;51.960;5.886;2022-07-24T10:06:19;2.40;;;2.20;;
36799;SDS011;22752;51.960;5.886;2022-07-24T10:08:47;2.20;;;2.00;;
36799;SDS011;22752;51.960;5.886;2022-07-24T10:11:14;2.88;;;2.38;;
36799;SDS011;22752;51.960;5.886;2022-07-24T10:13:41;2.67;;;2.10;;
36799;SDS011;22752;51.960;5.886;2022-07-24T10:29:23;2.13;;;1.70;;
36799;SDS011;22752;51.960;5.886;2022-07-24T10:31:52;2.70;;;2.10;;
36799;SDS011;22752;51.960;5.886;2022-07-24T10:37:20;2.20;;;2.00;;
36799;SDS011;22752;51.960;5.886;2022-07-24T10:45:36;2.00;;;1.90;;
36799;SDS011;22752;51.960;5.886;2022-07-24T10:53:24;2.35;;;2.15;;
36799;SDS011;22752;51.960;5.886;2022-07-24T10:55:51;2.42;;;2.15;;
36799;SDS011;22752;51.960;5.886;2022-07-24T10:58:17;4.68;;;2.70;;
36799;SDS011;22752;51.960;5.886;2022-07-24T11:00:46;2.10;;;2.00;;
36799;SDS011;22752;51.960;5.886;2022-07-24T11:03:18;2.33;;;2.13;;
36799;SDS011;22752;51.960;5.886;2022-07-24T11:08:36;2.05;;;1.90;;
36799;SDS011;22752;51.960;5.886;2022-07-24T11:11:08;2.65;;;1.98;;
36799;SDS011;22752;51.960;5.886;2022-07-24T11:21:32;3.35;;;2.20;;
36799;SDS011;22752;51.960;5.886;2022-07-24T11:26:51;2.13;;;1.92;;
36799;SDS011;22752;51.960;5.886;2022-07-24T11:29:27;3.33;;;2.30;;
36799;SDS011;22752;51.960;5.886;2022-07-24T11:32:07;2.10;;;1.92;;
36799;SDS011;22752;51.960;5.886;2022-07-24T11:34:36;5.57;;;2.55;;
36799;SDS011;22752;51.960;5.886;2022-07-24T11:37:03;2.55;;;2.20;;
36799;SDS011;22752;51.960;5.886;2022-07-24T11:39:40;2.30;;;2.10;;
36799;SDS011;22752;51.960;5.886;2022-07-24T11:42:08;2.55;;;2.17;;
36799;SDS011;22752;51.960;5.886;2022-07-24T11:44:39;2.60;;;2.20;;
36799;SDS011;22752;51.960;5.886;2022-07-24T11:47:08;2.50;;;2.30;;
36799;SDS011;22752;51.960;5.886;2022-07-24T11:49:42;2.40;;;2.20;;
36799;SDS011;22752;51.960;5.886;2022-07-24T11:52:34;2.47;;;2.22;;
36799;SDS011;22752;51.960;5.886;2022-07-24T11:55:06;3.55;;;2.20;;
36799;SDS011;22752;51.960;5.886;2022-07-24T11:57:34;5.43;;;2.35;;
36799;SDS011;22752;51.960;5.886;2022-07-24T12:00:03;5.15;;;2.10;;
36799;SDS011;22752;51.960;5.886;2022-07-24T12:02:31;3.20;;;2.15;;
36799;SDS011;22752;51.960;5.886;2022-07-24T12:04:57;2.10;;;1.90;;
36799;SDS011;22752;51.960;5.886;2022-07-24T12:07:23;3.83;;;2.10;;
36799;SDS011;22752;51.960;5.886;2022-07-24T12:09:54;2.10;;;1.90;;
36799;SDS011;22752;51.960;5.886;2022-07-24T12:15:04;2.22;;;2.00;;
36799;SDS011;22752;51.960;5.886;2022-07-24T12:17:30;4.00;;;2.25;;
36799;SDS011;22752;51.960;5.886;2022-07-24T12:19:58;3.28;;;2.20;;
36799;SDS011;22752;51.960;5.886;2022-07-24T12:22:26;2.83;;;1.85;;
36799;SDS011;22752;51.960;5.886;2022-07-24T12:24:53;2.83;;;2.30;;
36799;SDS011;22752;51.960;5.886;2022-07-24T12:27:37;3.85;;;2.15;;
36799;SDS011;22752;51.960;5.886;2022-07-24T12:30:21;4.97;;;2.20;;
36799;SDS011;22752;51.960;5.886;2022-07-24T12:33:05;2.88;;;2.13;;
36799;SDS011;22752;51.960;5.886;2022-07-24T12:35:56;3.05;;;2.35;;
36799;SDS011;22752;51.960;5.886;2022-07-24T12:38:31;2.85;;;2.30;;
36799;SDS011;22752;51.960;5.886;2022-07-24T12:41:11;2.55;;;2.03;;
36799;SDS011;22752;51.960;5.886;2022-07-24T12:43:47;2.83;;;2.20;;
36799;SDS011;22752;51.960;5.886;2022-07-24T12:46:20;3.85;;;2.13;;
36799;SDS011;22752;51.960;5.886;2022-07-24T12:48:57;5.32;;;2.05;;
36799;SDS011;22752;51.960;5.886;2022-07-24T12:51:25;2.30;;;2.10;;
36799;SDS011;22752;51.960;5.886;2022-07-24T12:53:55;2.47;;;2.00;;
36799;SDS011;22752;51.960;5.886;2022-07-24T12:56:21;1.83;;;1.70;;
36799;SDS011;22752;51.960;5.886;2022-07-24T12:58:48;2.00;;;1.90;;
36799;SDS011;22752;51.960;5.886;2022-07-24T13:01:22;3.95;;;1.80;;
36799;SDS011;22752;51.960;5.886;2022-07-24T13:03:50;2.72;;;2.30;;
36799;SDS011;22752;51.960;5.886;2022-07-24T13:06:30;2.15;;;1.77;;
36799;SDS011;22752;51.960;5.886;2022-07-24T13:09:07;2.97;;;2.13;;
36799;SDS011;22752;51.960;5.886;2022-07-24T13:11:35;2.22;;;1.70;;
36799;SDS011;22752;51.960;5.886;2022-07-24T13:14:05;2.25;;;1.90;;
36799;SDS011;22752;51.960;5.886;2022-07-24T13:16:32;3.65;;;2.13;;
36799;SDS011;22752;51.960;5.886;2022-07-24T13:19:00;2.72;;;1.83;;
36799;SDS011;22752;51.960;5.886;2022-07-24T13:21:27;2.63;;;2.20;;
36799;SDS011;22752;51.960;5.886;2022-07-24T13:23:53;2.90;;;2.10;;
36799;SDS011;22752;51.960;5.886;2022-07-24T13:26:19;3.42;;;2.20;;
36799;SDS011;22752;51.960;5.886;2022-07-24T13:28:46;4.45;;;2.13;;
36799;SDS011;22752;51.960;5.886;2022-07-24T13:31:12;2.20;;;2.00;;
36799;SDS011;22752;51.960;5.886;2022-07-24T13:33:38;4.03;;;2.20;;
36799;SDS011;22752;51.960;5.886;2022-07-24T13:36:04;4.07;;;2.10;;
36799;SDS011;22752;51.960;5.886;2022-07-24T13:38:30;1.98;;;1.75;;
36799;SDS011;22752;51.960;5.886;2022-07-24T13:40:55;2.28;;;1.83;;
36799;SDS011;22752;51.960;5.886;2022-07-24T13:43:21;2.45;;;1.95;;
36799;SDS011;22752;51.960;5.886;2022-07-24T13:45:47;6.85;;;1.83;;
36799;SDS011;22752;51.960;5.886;2022-07-24T13:48:12;1.98;;;1.70;;
36799;SDS011;22752;51.960;5.886;2022-07-24T13:50:38;2.03;;;1.83;;
36799;SDS011;22752;51.960;5.886;2022-07-24T13:53:03;1.90;;;1.70;;
36799;SDS011;22752;51.960;5.886;2022-07-24T13:55:30;2.60;;;1.67;;
36799;SDS011;22752;51.960;5.886;2022-07-24T13:57:57;1.90;;;1.80;;
36799;SDS011;22752;51.960;5.886;2022-07-24T14:00:23;1.45;;;1.35;;
36799;SDS011;22752;51.960;5.886;2022-07-24T14:02:49;1.90;;;1.73;;
36799;SDS011;22752;51.960;5.886;2022-07-24T14:05:20;4.97;;;2.00;;
36799;SDS011;22752;51.960;5.886;2022-07-24T14:07:46;1.92;;;1.70;;
36799;SDS011;22752;51.960;5.886;2022-07-24T14:10:12;2.63;;;2.00;;
36799;SDS011;22752;51.960;5.886;2022-07-24T14:12:38;2.28;;;2.03;;
36799;SDS011;22752;51.960;5.886;2022-07-24T14:15:03;2.38;;;2.13;;
36799;SDS011;22752;51.960;5.886;2022-07-24T14:17:29;2.13;;;1.80;;
36799;SDS011;22752;51.960;5.886;2022-07-24T14:19:56;2.00;;;1.80;;
36799;SDS011;22752;51.960;5.886;2022-07-24T14:22:22;2.05;;;1.85;;
36799;SDS011;22752;51.960;5.886;2022-07-24T14:24:47;1.70;;;1.60;;
36799;SDS011;22752;51.960;5.886;2022-07-24T14:27:13;2.45;;;1.75;;
36799;SDS011;22752;51.960;5.886;2022-07-24T14:29:39;2.42;;;1.70;;
36799;SDS011;22752;51.960;5.886;2022-07-24T14:32:04;2.47;;;1.92;;
36799;SDS011;22752;51.960;5.886;2022-07-24T14:34:30;1.98;;;1.77;;
36799;SDS011;22752;51.960;5.886;2022-07-24T14:36:56;2.42;;;2.00;;
36799;SDS011;22752;51.960;5.886;2022-07-24T14:39:21;4.82;;;2.30;;
36799;SDS011;22752;51.960;5.886;2022-07-24T14:41:47;2.35;;;2.10;;
36799;SDS011;22752;51.960;5.886;2022-07-24T14:44:12;2.03;;;1.80;;
36799;SDS011;22752;51.960;5.886;2022-07-24T14:46:39;2.20;;;2.00;;
36799;SDS011;22752;51.960;5.886;2022-07-24T14:49:05;2.22;;;1.95;;
36799;SDS011;22752;51.960;5.886;2022-07-24T14:51:31;5.65;;;2.10;;
36799;SDS011;22752;51.960;5.886;2022-07-24T14:53:57;2.03;;;1.80;;
36799;SDS011;22752;51.960;5.886;2022-07-24T14:56:23;2.67;;;2.10;;
36799;SDS011;22752;51.960;5.886;2022-07-24T14:58:48;2.78;;;1.70;;
36799;SDS011;22752;51.960;5.886;2022-07-24T15:01:14;2.20;;;1.95;;
36799;SDS011;22752;51.960;5.886;2022-07-24T15:03:40;4.57;;;2.20;;
36799;SDS011;22752;51.960;5.886;2022-07-24T15:06:06;5.63;;;2.10;;
36799;SDS011;22752;51.960;5.886;2022-07-24T15:08:32;5.07;;;2.03;;
36799;SDS011;22752;51.960;5.886;2022-07-24T15:10:57;2.97;;;1.80;;
36799;SDS011;22752;51.960;5.886;2022-07-24T15:13:23;4.75;;;2.38;;
36799;SDS011;22752;51.960;5.886;2022-07-24T15:15:49;3.22;;;2.15;;
36799;SDS011;22752;51.960;5.886;2022-07-24T15:18:16;2.92;;;2.38;;
36799;SDS011;22752;51.960;5.886;2022-07-24T15:20:42;2.15;;;1.90;;
36799;SDS011;22752;51.960;5.886;2022-07-24T15:23:08;2.75;;;2.10;;
36799;SDS011;22752;51.960;5.886;2022-07-24T15:25:34;3.10;;;2.15;;
36799;SDS011;22752;51.960;5.886;2022-07-24T15:28:00;2.30;;;2.10;;
36799;SDS011;22752;51.960;5.886;2022-07-24T15:30:26;2.38;;;1.80;;
36799;SDS011;22752;51.960;5.886;2022-07-24T15:32:52;1.88;;;1.77;;